Cincinnati, OH

6:36 PM EDT on August 29, 2015 (GMT -0400)
Newport Aquarium | | Change Station
CLOSE
Current Station
Personal Weather Station
Location: Newport, KY
Elevation: 499 ft
Nearby Weather Stations

Elev 499 ft 39.09 °N, 84.50 °W | Updated 17 seconds ago

Overcast
Overcast
79.6 °F
Feels Like 82 °F
N
0.0
Wind Variable Wind from NE
Gusts 3.0 mph

Today
High -- | Low -- °F
--% Chance of Precip.
Yesterday
High -- | Low -- °F
Precip. -- in
7:03 AM 8:13 PM
Full, 100% visible
Pressure 30.06 in
Visibility 7.0 miles
Clouds Few 5000 ft
Mostly Cloudy 8000 ft
Overcast 10000 ft
Heat Index 82 °F
Dew Point 66 °F
Humidity 64%
Rainfall 0.00 in
Snow Depth Not available.
UV 1 out of 12
Pollen 10.20 out of 12
Air Quality Not available.
Flu Activity Not available.
METAR KLUK 292153Z 23005KT 7SM -RA FEW050 BKN080 OVC100 26/20 A3006 RMK AO2 LTG DSNT SW RAB44 SLP177 P0001 T02560200
Pressure 30.06 in
Visibility 7.0 miles
Clouds Few 5000 ft
Mostly Cloudy 8000 ft
Overcast 10000 ft
Heat Index 82 °F
Dew Point 66 °F
Humidity 64%
Rainfall 0.00 in
Snow Depth Not available.
UV 1 out of 12
Pollen 10.20 out of 12
Air Quality Not available.
Flu Activity Not available.
METAR KLUK 292153Z 23005KT 7SM -RA FEW050 BKN080 OVC100 26/20 A3006 RMK AO2 LTG DSNT SW RAB44 SLP177 P0001 T02560200

10-Day Weather Forecast

×

Almanac

Astronomy

Aug. 29, 2015 Rise Set
Actual Time
Civil Twilight
Nautical Twilight
Astronomical Twilight
Moon
Length of Visible Light
Length of Day
Tomorrow will be .
, % of the Moon is Illuminated

Today's Extremes

State Highs State Lows

Community

WunderPhotos

Upload Photos

1,850,775 photos uploaded!

WunderBlogs® & News

Nearby

Air Quality

  Air Quality AQ Index Pollutant
Not available.

Snow Depth

Station Depth Elevation

Earthquake Activity

City Distance Mag. Time & Date
Minimum magnitude displayed is 2.5.

Coastal Water Temperatures

Place Temperature

Stations

Nearby Weather Stations

Station Location Temp. Windchill Dew Point Humidity Wind Precip. Elev Updated Type